createdAt,value
2018-08-24T00:01:57.612Z,67.50
2018-08-24T00:04:25.923Z,67.60
2018-08-24T00:06:54.181Z,67.60
2018-08-24T00:09:25.553Z,68.10
2018-08-24T00:14:21.692Z,68.30
2018-08-24T00:16:50.008Z,69.30
2018-08-24T00:19:18.491Z,69.60
2018-08-24T00:21:47.596Z,69.70
2018-08-24T00:24:16.083Z,70.70
2018-08-24T00:26:44.312Z,71.40
2018-08-24T00:29:12.539Z,71.40
2018-08-24T00:31:41.178Z,72.00
2018-08-24T00:34:09.343Z,72.00
2018-08-24T00:36:37.567Z,71.90
2018-08-24T00:39:07.739Z,71.30
2018-08-24T00:41:36.227Z,72.00
2018-08-24T00:44:04.463Z,72.10
2018-08-24T00:46:32.759Z,72.50
2018-08-24T00:49:01.020Z,72.90
2018-08-24T00:51:29.260Z,72.80
2018-08-24T00:53:57.485Z,72.90
2018-08-24T00:56:25.704Z,73.40
2018-08-24T00:58:53.912Z,73.30
2018-08-24T01:01:22.132Z,72.20
2018-08-24T01:03:50.400Z,71.70
2018-08-24T01:06:24.649Z,71.60
2018-08-24T01:08:52.861Z,71.20
2018-08-24T01:11:25.300Z,72.20
2018-08-24T01:13:53.739Z,72.00
2018-08-24T01:18:55.474Z,72.90
2018-08-24T01:21:23.731Z,74.30
2018-08-24T01:23:51.958Z,74.00
2018-08-24T01:26:22.825Z,73.90
2018-08-24T01:28:51.821Z,74.40
2018-08-24T01:31:20.315Z,74.20
2018-08-24T01:33:48.536Z,74.10
2018-08-24T01:36:16.738Z,74.30
2018-08-24T01:38:44.959Z,74.60
2018-08-24T01:41:13.232Z,75.10
2018-08-24T01:43:41.459Z,75.60
2018-08-24T01:46:10.900Z,75.80
2018-08-24T01:48:39.614Z,76.70
2018-08-24T01:51:07.836Z,76.80
2018-08-24T01:53:36.091Z,77.00
2018-08-24T01:56:04.299Z,77.60
2018-08-24T01:58:32.523Z,77.60
2018-08-24T02:01:00.747Z,77.90
2018-08-24T02:03:28.971Z,77.30
2018-08-24T02:06:02.579Z,76.10
2018-08-24T02:08:30.791Z,75.60
2018-08-24T02:10:59.040Z,75.80
2018-08-24T02:13:32.802Z,75.70
2018-08-24T02:16:01.014Z,75.50
2018-08-24T02:22:07.721Z,75.90
2018-08-24T02:24:35.968Z,76.60
2018-08-24T02:27:04.141Z,77.00
2018-08-24T02:29:32.320Z,77.00
2018-08-24T02:32:07.047Z,75.60
2018-08-24T02:34:35.312Z,76.40
2018-08-24T02:37:03.503Z,75.10
2018-08-24T02:39:31.700Z,74.80
2018-08-24T02:49:23.719Z,73.90
2018-08-24T02:51:51.911Z,74.60
2018-08-24T02:54:20.188Z,74.60
2018-08-24T02:56:48.406Z,74.60
2018-08-24T02:59:16.599Z,75.00
2018-08-24T03:01:44.771Z,74.90
2018-08-24T03:04:13.840Z,74.90
2018-08-24T03:06:42.030Z,75.60
2018-08-24T03:09:11.104Z,75.30
2018-08-24T03:11:39.349Z,76.30
2018-08-24T03:14:07.636Z,76.50
2018-08-24T03:16:35.892Z,78.10
2018-08-24T03:19:04.116Z,79.20
2018-08-24T03:21:32.286Z,77.50
2018-08-24T03:24:00.481Z,78.40
2018-08-24T03:26:28.660Z,78.60
2018-08-24T03:28:56.876Z,79.30
2018-08-24T03:31:25.063Z,79.80
2018-08-24T03:33:53.318Z,80.10
2018-08-24T03:36:21.516Z,79.20
2018-08-24T03:38:49.693Z,78.80
2018-08-24T03:41:17.873Z,79.70
2018-08-24T03:43:46.123Z,79.50
2018-08-24T03:51:10.254Z,80.20
2018-08-24T03:53:38.441Z,81.70
2018-08-24T03:56:06.629Z,81.50
2018-08-24T03:58:34.832Z,83.50
2018-08-24T04:01:03.036Z,82.50
2018-08-24T04:03:31.222Z,82.60
2018-08-24T04:05:59.427Z,83.30
2018-08-24T04:08:27.615Z,83.70
2018-08-24T04:10:55.816Z,83.80
2018-08-24T04:13:23.997Z,84.00
2018-08-24T04:15:52.270Z,83.50
2018-08-24T04:18:20.487Z,83.60
2018-08-24T04:20:48.698Z,83.10
2018-08-24T04:23:16.887Z,84.80
2018-08-24T04:25:45.176Z,84.00
2018-08-24T04:28:13.310Z,85.20
2018-08-24T04:30:41.516Z,85.60
2018-08-24T04:33:15.102Z,85.90
2018-08-24T04:35:43.406Z,86.00
2018-08-24T04:38:11.607Z,85.70
2018-08-24T04:40:39.843Z,85.00
2018-08-24T04:43:08.072Z,85.70
2018-08-24T04:45:36.373Z,85.90
2018-08-24T04:48:04.526Z,86.50
2018-08-24T04:50:32.746Z,86.80
2018-08-24T04:53:00.948Z,85.90
2018-08-24T04:55:29.176Z,86.90
2018-08-24T04:57:57.378Z,87.30
2018-08-24T05:00:25.605Z,87.60
2018-08-24T05:02:53.867Z,87.40
2018-08-24T05:05:22.113Z,88.00
2018-08-24T05:07:50.318Z,87.20
2018-08-24T05:10:18.517Z,86.90
2018-08-24T05:12:46.727Z,86.90
2018-08-24T05:15:14.996Z,87.50
2018-08-24T05:17:43.207Z,87.10
2018-08-24T05:20:11.423Z,87.70
2018-08-24T05:22:39.644Z,89.50
2018-08-24T05:25:07.845Z,89.90
2018-08-24T05:27:36.064Z,90.40
2018-08-24T05:30:04.298Z,90.00
2018-08-24T05:33:35.811Z,89.90
2018-08-24T05:36:04.016Z,90.20
2018-08-24T05:38:32.251Z,90.20
2018-08-24T05:41:00.473Z,90.50
2018-08-24T05:43:28.695Z,90.20
2018-08-24T05:45:56.899Z,90.10
2018-08-24T05:48:25.154Z,90.10
2018-08-24T05:50:53.370Z,89.80
2018-08-24T05:53:21.597Z,90.10
2018-08-24T05:55:49.902Z,91.60
2018-08-24T05:58:18.054Z,90.10
2018-08-24T06:00:46.574Z,89.70
2018-08-24T06:03:14.803Z,90.00
2018-08-24T06:05:48.471Z,90.20
2018-08-24T06:08:16.663Z,90.40
2018-08-24T06:10:44.879Z,90.80
2018-08-24T06:13:18.307Z,90.50
2018-08-24T06:15:47.914Z,90.40
2018-08-24T06:18:16.128Z,90.30
2018-08-24T06:20:44.331Z,90.20
2018-08-24T06:23:12.632Z,90.30
2018-08-24T06:25:40.819Z,90.30
2018-08-24T06:28:09.035Z,91.00
2018-08-24T06:30:37.243Z,90.70
2018-08-24T06:33:05.526Z,90.50
2018-08-24T06:35:33.746Z,90.50
2018-08-24T06:38:02.012Z,90.60
2018-08-24T06:40:30.298Z,90.50
2018-08-24T06:42:58.519Z,90.70
2018-08-24T06:45:26.744Z,90.40
2018-08-24T06:47:54.982Z,89.50
2018-08-24T06:50:23.340Z,88.00
2018-08-24T06:52:51.563Z,87.60
2018-08-24T06:55:19.735Z,87.60
2018-08-24T06:57:47.931Z,86.60
2018-08-24T07:00:20.387Z,84.70
2018-08-24T07:02:48.574Z,84.40
2018-08-24T07:05:16.766Z,83.40
2018-08-24T07:07:44.955Z,83.70
2018-08-24T07:12:41.127Z,81.50
2018-08-24T07:17:42.591Z,81.50
2018-08-24T07:20:10.787Z,81.00
2018-08-24T07:22:38.974Z,80.80
2018-08-24T07:25:07.178Z,80.60
2018-08-24T07:27:35.363Z,79.20
2018-08-24T07:30:03.579Z,80.60
2018-08-24T07:32:31.791Z,81.60
2018-08-24T07:35:00.090Z,82.60
2018-08-24T07:37:28.293Z,79.50
2018-08-24T07:39:56.492Z,80.30
2018-08-24T07:42:24.752Z,80.40
2018-08-24T07:44:54.127Z,81.10
2018-08-24T07:47:23.218Z,78.50
2018-08-24T07:49:51.823Z,75.60
2018-08-24T07:52:20.043Z,77.60
2018-08-24T07:54:48.398Z,77.10
2018-08-24T07:57:16.719Z,75.50
2018-08-24T07:59:44.963Z,76.20
2018-08-24T08:02:13.181Z,75.90
2018-08-24T08:04:41.395Z,75.50
2018-08-24T08:07:09.617Z,76.00
2018-08-24T08:09:37.823Z,78.00
2018-08-24T08:12:06.127Z,77.70
2018-08-24T08:14:34.370Z,74.40
2018-08-24T08:17:03.231Z,76.20
2018-08-24T08:22:00.880Z,72.60
2018-08-24T08:24:29.207Z,71.20
2018-08-24T08:26:57.384Z,71.20
2018-08-24T08:30:03.752Z,70.10
2018-08-24T08:32:32.407Z,64.10
2018-08-24T08:35:00.812Z,63.60
2018-08-24T08:37:28.993Z,64.20
2018-08-24T08:40:01.581Z,62.10
2018-08-24T08:42:29.756Z,60.30
2018-08-24T08:44:58.174Z,60.60
2018-08-24T08:47:26.403Z,59.20
2018-08-24T08:49:54.679Z,59.60
2018-08-24T08:52:22.874Z,58.90
2018-08-24T08:54:51.328Z,58.30
2018-08-24T08:57:19.693Z,58.50
2018-08-24T08:59:47.935Z,58.80
2018-08-24T09:02:16.162Z,57.70
2018-08-24T09:04:44.372Z,58.40
2018-08-24T09:07:12.555Z,57.00
2018-08-24T09:09:47.600Z,57.20
2018-08-24T09:12:15.772Z,58.20
2018-08-24T09:14:44.003Z,57.30
2018-08-24T09:17:17.551Z,57.40
2018-08-24T09:19:51.200Z,57.40
2018-08-24T09:22:24.836Z,57.00
2018-08-24T09:24:58.648Z,57.70
2018-08-24T09:27:30.088Z,57.20
2018-08-24T09:30:01.197Z,57.40
2018-08-24T09:32:29.575Z,57.70
2018-08-24T09:34:57.720Z,58.50
2018-08-24T09:37:31.267Z,59.10
2018-08-24T09:39:59.490Z,59.20
2018-08-24T09:44:55.663Z,59.20
2018-08-24T09:50:01.664Z,59.60
2018-08-24T09:52:29.877Z,60.20
2018-08-24T09:54:58.231Z,59.90
2018-08-24T09:57:26.436Z,59.00
2018-08-24T09:59:54.659Z,58.90
2018-08-24T10:02:25.138Z,58.70
2018-08-24T10:04:58.799Z,57.60
2018-08-24T10:07:34.308Z,58.00
2018-08-24T10:10:02.875Z,58.40
2018-08-24T10:12:35.148Z,58.80
2018-08-24T10:15:04.284Z,58.30
2018-08-24T10:17:32.544Z,57.90
2018-08-24T10:20:00.797Z,58.20
2018-08-24T10:22:29.035Z,57.50
2018-08-24T10:24:57.250Z,57.30
2018-08-24T10:27:25.498Z,58.00
2018-08-24T10:29:54.821Z,57.70
2018-08-24T10:32:23.033Z,57.60
2018-08-24T10:34:51.392Z,57.30
2018-08-24T10:37:19.583Z,57.70
2018-08-24T10:39:47.797Z,57.40
2018-08-24T10:42:16.003Z,57.30
2018-08-24T10:47:12.182Z,57.40
2018-08-24T10:49:40.412Z,58.10
2018-08-24T10:52:08.643Z,58.90
2018-08-24T10:54:36.865Z,57.30
2018-08-24T10:57:05.123Z,57.50
2018-08-24T10:59:33.331Z,58.30
2018-08-24T11:02:05.508Z,58.00
2018-08-24T11:04:33.686Z,58.50
2018-08-24T11:07:01.900Z,58.30
2018-08-24T11:09:30.116Z,56.90
2018-08-24T11:11:58.324Z,57.30
2018-08-24T11:14:27.520Z,57.90
2018-08-24T11:16:55.754Z,57.90
2018-08-24T11:19:23.954Z,56.70
2018-08-24T11:21:52.356Z,57.30
2018-08-24T11:24:20.572Z,56.80
2018-08-24T11:26:48.783Z,57.40
2018-08-24T11:29:17.043Z,57.50
2018-08-24T11:31:45.235Z,56.40
2018-08-24T11:34:13.919Z,56.30
2018-08-24T11:36:42.156Z,56.50
2018-08-24T11:39:10.355Z,57.10
2018-08-24T11:41:38.597Z,57.50
2018-08-24T11:46:34.751Z,57.50
2018-08-24T11:51:30.961Z,57.80
2018-08-24T11:53:59.572Z,58.50
2018-08-24T11:56:27.806Z,58.60
2018-08-24T11:58:56.016Z,59.10
2018-08-24T12:01:24.250Z,58.40
2018-08-24T12:03:52.476Z,58.80
2018-08-24T12:06:20.686Z,59.50
2018-08-24T12:08:48.902Z,57.80
2018-08-24T12:11:17.202Z,57.20
2018-08-24T12:13:45.481Z,57.50
2018-08-24T12:16:13.675Z,59.00
2018-08-24T12:18:41.886Z,60.70
2018-08-24T12:21:10.150Z,63.00
2018-08-24T12:26:06.413Z,65.30
2018-08-24T12:28:34.699Z,65.70
2018-08-24T12:31:02.981Z,66.30
2018-08-24T12:33:31.208Z,65.60
2018-08-24T12:35:59.485Z,65.80
2018-08-24T12:38:27.797Z,61.80
2018-08-24T12:40:56.101Z,61.30
2018-08-24T12:43:24.389Z,60.90
2018-08-24T12:45:52.527Z,61.70
2018-08-24T12:50:48.718Z,60.70
2018-08-24T12:53:16.935Z,61.40
2018-08-24T12:55:45.422Z,60.20
2018-08-24T12:58:13.671Z,60.60
2018-08-24T13:00:41.863Z,60.60
2018-08-24T13:03:10.046Z,60.20
2018-08-24T13:05:38.310Z,58.30
2018-08-24T13:08:06.500Z,58.80
2018-08-24T13:10:34.684Z,59.20
2018-08-24T13:13:02.899Z,59.70
2018-08-24T13:15:31.184Z,59.50
2018-08-24T13:17:59.463Z,59.30
2018-08-24T13:20:27.684Z,59.40
2018-08-24T13:22:55.875Z,58.50
2018-08-24T13:25:24.063Z,59.50
2018-08-24T13:27:58.759Z,59.10
2018-08-24T13:33:01.604Z,59.50
2018-08-24T13:35:36.789Z,59.60
2018-08-24T13:38:05.371Z,59.20
2018-08-24T13:40:33.547Z,59.10
2018-08-24T13:43:01.732Z,58.40
2018-08-24T13:45:29.913Z,57.40
2018-08-24T13:47:58.184Z,58.40
2018-08-24T13:50:26.387Z,58.10
2018-08-24T13:52:54.615Z,58.10
2018-08-24T13:57:50.745Z,58.20
2018-08-24T14:00:18.921Z,58.70
2018-08-24T14:02:47.110Z,58.30
2018-08-24T14:05:15.339Z,58.50
2018-08-24T14:07:43.667Z,57.90
2018-08-24T14:10:11.856Z,58.30
2018-08-24T14:12:40.054Z,58.40
2018-08-24T14:15:08.258Z,57.60
2018-08-24T14:17:36.461Z,58.10
2018-08-24T14:20:04.720Z,57.60
2018-08-24T14:22:32.937Z,58.00
2018-08-24T14:25:01.146Z,58.10
2018-08-24T14:27:29.328Z,57.50
2018-08-24T14:29:57.535Z,57.30
2018-08-24T14:32:25.707Z,57.10
2018-08-24T14:34:53.901Z,57.10
2018-08-24T14:37:22.110Z,56.70
2018-08-24T14:39:50.296Z,56.40
2018-08-24T14:42:18.495Z,57.10
2018-08-24T14:44:46.698Z,56.60
2018-08-24T14:47:14.946Z,57.90
2018-08-24T14:49:43.141Z,57.30
2018-08-24T14:52:11.328Z,56.70
2018-08-24T14:54:39.617Z,57.00
2018-08-24T14:57:08.965Z,56.90
2018-08-24T15:04:34.587Z,56.30
2018-08-24T15:07:02.736Z,57.90
2018-08-24T15:09:31.002Z,57.90
2018-08-24T15:11:59.202Z,58.00
2018-08-24T15:14:27.484Z,58.50
2018-08-24T15:16:55.778Z,58.30
2018-08-24T15:19:23.942Z,58.00
2018-08-24T15:21:52.180Z,58.20
2018-08-24T15:24:20.367Z,58.70
2018-08-24T15:26:48.571Z,59.30
2018-08-24T15:31:45.985Z,59.00
2018-08-24T15:36:42.171Z,58.50
2018-08-24T15:39:12.254Z,58.80
2018-08-24T15:41:40.922Z,58.70
2018-08-24T15:44:09.181Z,58.90
2018-08-24T15:46:37.413Z,58.90
2018-08-24T15:49:06.559Z,59.40
2018-08-24T15:51:34.874Z,58.70
2018-08-24T15:54:03.090Z,55.80
2018-08-24T15:56:31.310Z,53.70
2018-08-24T15:58:59.576Z,54.30
2018-08-24T16:01:27.897Z,54.20
2018-08-24T16:03:56.144Z,55.50
2018-08-24T16:06:24.367Z,56.10
2018-08-24T16:08:52.588Z,58.20
2018-08-24T16:11:20.820Z,60.00
2018-08-24T16:13:49.043Z,60.70
2018-08-24T16:16:17.295Z,61.00
2018-08-24T16:18:45.514Z,61.50
2018-08-24T16:21:13.719Z,61.60
2018-08-24T16:23:42.025Z,62.60
2018-08-24T16:26:14.480Z,63.40
2018-08-24T16:28:42.699Z,64.60
2018-08-24T16:31:11.029Z,66.20
2018-08-24T16:33:39.315Z,67.20
2018-08-24T16:36:07.579Z,68.30
2018-08-24T16:38:35.824Z,72.10
2018-08-24T16:41:04.059Z,72.20
2018-08-24T16:43:32.373Z,72.70
2018-08-24T16:46:00.687Z,72.90
2018-08-24T16:48:28.870Z,73.30
2018-08-24T16:50:57.091Z,74.60
2018-08-24T16:53:25.357Z,75.10
2018-08-24T16:55:53.663Z,76.90
2018-08-24T16:58:21.928Z,78.10
2018-08-24T17:00:50.217Z,79.20
2018-08-24T17:10:42.476Z,84.90
2018-08-24T17:13:10.689Z,85.70
2018-08-24T17:15:38.925Z,85.70
2018-08-24T17:18:07.468Z,85.50
2018-08-24T17:20:35.695Z,85.80
2018-08-24T17:23:04.020Z,87.60
2018-08-24T17:25:32.281Z,86.30
2018-08-24T17:28:00.611Z,87.10
2018-08-24T17:30:29.048Z,86.60
2018-08-24T17:32:57.295Z,86.90
2018-08-24T17:35:25.507Z,87.40
2018-08-24T17:37:53.752Z,87.00
2018-08-24T17:40:21.971Z,86.10
2018-08-24T17:42:50.287Z,88.30
2018-08-24T17:45:18.568Z,87.10
2018-08-24T17:47:46.867Z,87.30
2018-08-24T17:50:15.182Z,85.30
2018-08-24T17:52:43.445Z,86.50
2018-08-24T17:55:11.743Z,86.20
2018-08-24T17:57:39.953Z,85.60
2018-08-24T18:00:08.224Z,86.00
2018-08-24T18:02:36.472Z,85.70
2018-08-24T18:05:04.870Z,85.60
2018-08-24T18:07:33.103Z,84.60
2018-08-24T18:10:01.320Z,85.50
2018-08-24T18:12:29.536Z,85.20
2018-08-24T18:14:57.819Z,85.40
2018-08-24T18:17:25.937Z,83.30
2018-08-24T18:19:54.208Z,85.10
2018-08-24T18:22:22.572Z,85.00
2018-08-24T18:24:50.754Z,85.00
2018-08-24T18:27:18.997Z,86.30
2018-08-24T18:29:47.210Z,86.20
2018-08-24T18:32:15.466Z,86.10
2018-08-24T18:34:43.690Z,86.70
2018-08-24T18:37:11.887Z,86.90
2018-08-24T18:39:40.134Z,87.50
2018-08-24T18:42:08.288Z,86.90
2018-08-24T18:44:36.516Z,87.20
2018-08-24T18:47:11.219Z,88.20
2018-08-24T18:49:39.399Z,88.20
2018-08-24T18:52:07.598Z,87.60
2018-08-24T18:54:35.871Z,87.80
2018-08-24T18:57:04.059Z,87.60
2018-08-24T18:59:32.267Z,87.80
2018-08-24T19:02:00.494Z,89.40
2018-08-24T19:04:28.683Z,87.90
2018-08-24T19:09:24.825Z,88.40
2018-08-24T19:11:58.379Z,88.20
2018-08-24T19:17:01.164Z,88.40
2018-08-24T19:19:34.687Z,89.20
2018-08-24T19:22:04.708Z,89.30
2018-08-24T19:24:32.926Z,87.90
2018-08-24T19:27:01.130Z,85.20
2018-08-24T19:29:34.891Z,85.10
2018-08-24T19:32:03.268Z,84.80
2018-08-24T19:34:31.504Z,84.50
2018-08-24T19:36:59.754Z,83.70
2018-08-24T19:39:27.972Z,81.80
2018-08-24T19:42:01.586Z,82.80
2018-08-24T19:44:29.808Z,83.50
2018-08-24T19:46:58.071Z,83.60
2018-08-24T19:49:26.397Z,83.50
2018-08-24T19:51:54.546Z,83.30
2018-08-24T19:54:22.771Z,83.30
2018-08-24T19:56:50.982Z,83.80
2018-08-24T19:59:19.249Z,85.60
2018-08-24T20:01:47.468Z,85.00
2018-08-24T20:04:15.679Z,84.90
2018-08-24T20:09:22.695Z,84.40
2018-08-24T20:11:52.329Z,85.10
2018-08-24T20:14:25.923Z,86.40
2018-08-24T20:16:59.591Z,87.00
2018-08-24T20:19:28.636Z,87.10
2018-08-24T20:21:56.847Z,87.00
2018-08-24T20:24:25.333Z,86.60
2018-08-24T20:26:53.426Z,86.80
2018-08-24T20:29:21.649Z,86.40
2018-08-24T20:31:49.875Z,86.20
2018-08-24T20:34:18.155Z,85.00
2018-08-24T20:36:46.426Z,84.40
2018-08-24T20:39:14.653Z,83.00
2018-08-24T20:41:42.872Z,83.90
2018-08-24T20:44:11.100Z,84.50
2018-08-24T20:46:39.307Z,84.30
2018-08-24T20:49:07.634Z,84.60
2018-08-24T20:51:35.982Z,85.10
2018-08-24T20:54:04.224Z,85.30
2018-08-24T20:56:32.436Z,84.20
2018-08-24T20:59:00.707Z,83.30
2018-08-24T21:01:28.979Z,82.30
2018-08-24T21:03:57.206Z,81.20
2018-08-24T21:06:26.444Z,82.10
2018-08-24T21:11:22.716Z,81.50
2018-08-24T21:13:50.982Z,81.70
2018-08-24T21:16:19.191Z,82.40
2018-08-24T21:18:47.408Z,82.80
2018-08-24T21:21:15.626Z,83.20
2018-08-24T21:23:43.930Z,83.80
2018-08-24T21:26:12.181Z,84.40
2018-08-24T21:28:40.462Z,85.10
2018-08-24T21:31:08.748Z,85.80
2018-08-24T21:33:36.954Z,84.70
2018-08-24T21:36:05.176Z,83.70
2018-08-24T21:38:33.408Z,84.30
2018-08-24T21:41:01.632Z,84.40
2018-08-24T21:43:29.854Z,84.90
2018-08-24T21:45:58.174Z,85.20
2018-08-24T21:48:26.416Z,84.40
2018-08-24T21:50:54.700Z,84.20
2018-08-24T21:53:22.917Z,82.90
2018-08-24T21:55:51.351Z,83.00
2018-08-24T21:58:19.569Z,83.40
2018-08-24T22:00:47.783Z,84.50
2018-08-24T22:03:16.007Z,84.10
2018-08-24T22:05:44.239Z,83.40
2018-08-24T22:08:12.483Z,82.60
2018-08-24T22:10:40.711Z,82.80
2018-08-24T22:13:08.919Z,83.30
2018-08-24T22:18:05.111Z,83.80
2018-08-24T22:20:33.412Z,84.80
2018-08-24T22:23:01.730Z,83.40
2018-08-24T22:25:30.048Z,83.50
2018-08-24T22:27:58.242Z,83.40
2018-08-24T22:30:26.479Z,83.00
2018-08-24T22:32:54.688Z,83.50
2018-08-24T22:35:22.927Z,83.80
2018-08-24T22:37:51.131Z,83.80
2018-08-24T22:40:19.376Z,84.30
2018-08-24T22:42:47.550Z,84.30
2018-08-24T22:45:15.751Z,84.20
2018-08-24T22:47:43.978Z,84.30
2018-08-24T22:50:12.179Z,84.70
2018-08-24T22:52:40.799Z,85.10
2018-08-24T22:55:09.729Z,85.00
2018-08-24T22:57:37.935Z,85.20
2018-08-24T23:00:06.159Z,85.10
2018-08-24T23:02:34.347Z,85.50
2018-08-24T23:05:02.538Z,85.10
2018-08-24T23:07:30.786Z,85.00
2018-08-24T23:09:59.106Z,84.90
2018-08-24T23:12:27.460Z,85.30
2018-08-24T23:14:55.908Z,84.70
2018-08-24T23:22:20.139Z,85.10
2018-08-24T23:24:48.321Z,86.10
2018-08-24T23:27:16.648Z,86.10
2018-08-24T23:29:44.935Z,86.10
2018-08-24T23:32:13.174Z,86.70
2018-08-24T23:34:41.435Z,86.40
2018-08-24T23:37:09.641Z,86.50
2018-08-24T23:39:37.839Z,86.40
2018-08-24T23:42:06.128Z,86.30
2018-08-24T23:44:34.353Z,86.60
2018-08-24T23:47:02.564Z,86.20
2018-08-24T23:49:30.791Z,86.30
2018-08-24T23:51:58.974Z,86.50
2018-08-24T23:54:27.167Z,86.30
2018-08-24T23:56:55.349Z,86.70
2018-08-24T23:59:23.534Z,86.40
